Ellison Bay, Wisconsin
Current Conditions -  °F | °C
As of 9:15 AM on Sunday 21 Dec 2014 (Local Time) from KMNM Reporting Station
Overcast Overcast  
Wind Chill: 23°   Ceiling: 3600
Heat Index: 30°   Visibility: 5mi
Dew Point: 27°   Wind: 7mph
Humidity: 86%   Direction: 170°S
Pressure: 30.11"   Gusts: NA
Location:  45.25°N, 87.08°W
Report Text: KMNM 211515Z AUTO 17006KT 5SM FEW028 OVC036 M01/M03 A3011 RMK AO1
Loading
Personal Weather Stations






























Interactive Weather Map New forecast layout! Learn more

10-Day Weather Forecast

Advertisements
Track Severe Weather on mobile